createdAt,value
2022-11-18T00:00:22.136Z,37.08
2022-11-18T00:03:17.080Z,35.58
2022-11-18T00:07:22.313Z,36.17
2022-11-18T00:10:57.395Z,35.30
2022-11-18T00:13:50.649Z,35.63
2022-11-18T00:16:20.745Z,34.63
2022-11-18T00:18:48.574Z,31.77
2022-11-18T00:21:17.384Z,32.58
2022-11-18T00:23:45.044Z,33.17
2022-11-18T00:26:14.258Z,30.80
2022-11-18T00:28:42.166Z,29.88
2022-11-18T00:31:11.966Z,30.73
2022-11-18T00:33:40.756Z,29.23
2022-11-18T00:36:11.157Z,33.03
2022-11-18T00:38:40.248Z,31.17
2022-11-18T00:41:10.594Z,33.55
2022-11-18T00:43:39.230Z,36.83
2022-11-18T00:46:08.636Z,33.47
2022-11-18T00:48:36.707Z,34.08
2022-11-18T00:51:19.212Z,35.38
2022-11-18T00:53:47.219Z,36.28
2022-11-18T00:56:14.975Z,37.85
2022-11-18T00:58:42.653Z,35.80
2022-11-18T01:01:10.545Z,35.70
2022-11-18T01:03:38.298Z,36.47
2022-11-18T01:06:06.033Z,36.90
2022-11-18T01:08:33.842Z,35.92
2022-11-18T01:11:21.702Z,31.83
2022-11-18T01:13:50.544Z,34.70
2022-11-18T01:16:23.992Z,32.78
2022-11-18T01:18:51.755Z,33.05
2022-11-18T01:21:19.764Z,31.73
2022-11-18T01:23:47.990Z,32.00
2022-11-18T01:26:18.598Z,31.20
2022-11-18T01:28:46.419Z,30.08
2022-11-18T01:31:19.401Z,26.40
2022-11-18T01:33:47.464Z,26.75
2022-11-18T01:36:25.214Z,24.27
2022-11-18T01:38:54.905Z,25.27
2022-11-18T01:41:25.704Z,22.23
2022-11-18T01:44:01.735Z,19.75
2022-11-18T01:46:33.827Z,21.00
2022-11-18T01:49:04.102Z,19.42
2022-11-18T01:51:36.748Z,20.88
2022-11-18T01:54:12.864Z,20.90
2022-11-18T01:56:45.434Z,19.90
2022-11-18T01:59:17.796Z,18.27
2022-11-18T02:01:47.557Z,19.38
2022-11-18T02:04:15.668Z,19.95
2022-11-18T02:06:45.911Z,23.65
2022-11-18T02:09:16.577Z,22.75
2022-11-18T02:11:56.624Z,24.02
2022-11-18T02:14:30.027Z,23.35
2022-11-18T02:17:18.757Z,21.63
2022-11-18T02:19:53.129Z,21.38
2022-11-18T02:22:23.612Z,22.63
2022-11-18T02:25:05.215Z,22.40
2022-11-18T02:27:38.702Z,23.08
2022-11-18T02:30:13.140Z,22.33
2022-11-18T02:33:14.538Z,22.13
2022-11-18T02:35:57.557Z,21.80
2022-11-18T02:38:31.365Z,23.63
2022-11-18T02:41:05.873Z,23.85
2022-11-18T02:43:41.444Z,22.42
2022-11-18T02:46:15.295Z,21.23
2022-11-18T02:48:48.474Z,24.77
2022-11-18T02:51:21.419Z,22.30
2022-11-18T02:53:50.570Z,23.20
2022-11-18T02:56:20.359Z,23.65
2022-11-18T02:58:48.187Z,22.38
2022-11-18T03:01:21.550Z,22.17
2022-11-18T03:03:49.218Z,22.05
2022-11-18T03:06:49.358Z,22.38
2022-11-18T03:09:31.379Z,21.73
2022-11-18T03:12:30.626Z,23.63
2022-11-18T03:15:27.063Z,19.45
2022-11-18T03:18:21.850Z,22.40
2022-11-18T03:21:14.937Z,19.40
2022-11-18T03:23:59.214Z,20.05
2022-11-18T03:26:34.719Z,16.90
2022-11-18T03:29:11.880Z,14.88
2022-11-18T03:31:54.908Z,13.40
2022-11-18T03:34:30.443Z,13.18
2022-11-18T03:39:34.356Z,13.48
2022-11-18T03:42:15.608Z,15.98
2022-11-18T03:44:52.360Z,14.23
2022-11-18T03:47:29.522Z,14.18
2022-11-18T03:50:08.797Z,15.10
2022-11-18T03:52:37.773Z,17.83
2022-11-18T03:55:12.686Z,17.83
2022-11-18T03:58:15.592Z,20.23
2022-11-18T04:00:46.378Z,19.58
2022-11-18T04:03:14.787Z,20.77
2022-11-18T04:05:43.709Z,21.90
2022-11-18T04:08:18.502Z,20.23
2022-11-18T04:10:51.047Z,21.70
2022-11-18T04:13:29.768Z,22.70
2022-11-18T04:16:01.241Z,23.40
2022-11-18T04:18:29.108Z,22.85
2022-11-18T04:20:56.875Z,24.20
2022-11-18T04:23:24.502Z,23.20
2022-11-18T04:25:52.306Z,23.58
2022-11-18T04:28:19.989Z,23.58
2022-11-18T04:30:47.680Z,20.73
2022-11-18T04:33:17.934Z,19.70
2022-11-18T04:35:47.425Z,21.58
2022-11-18T04:38:22.137Z,19.67
2022-11-18T04:40:54.203Z,24.10
2022-11-18T04:43:24.182Z,26.23
2022-11-18T04:45:51.915Z,24.55
2022-11-18T04:48:22.023Z,26.92
2022-11-18T04:50:49.712Z,25.38
2022-11-18T04:53:18.550Z,25.55
2022-11-18T04:55:46.251Z,27.65
2022-11-18T04:58:13.890Z,27.42
2022-11-18T05:00:41.563Z,26.20
2022-11-18T05:03:09.448Z,28.13
2022-11-18T05:05:39.395Z,29.48
2022-11-18T05:08:07.067Z,27.88
2022-11-18T05:10:35.838Z,31.25
2022-11-18T05:13:03.519Z,31.35
2022-11-18T05:15:31.223Z,32.65
2022-11-18T05:17:59.041Z,35.05
2022-11-18T05:20:26.965Z,35.65
2022-11-18T05:22:54.735Z,33.92
2022-11-18T05:25:22.415Z,34.95
2022-11-18T05:27:52.598Z,37.70
2022-11-18T05:30:20.386Z,34.67
2022-11-18T05:32:48.025Z,39.47
2022-11-18T05:35:18.326Z,38.33
2022-11-18T05:37:45.903Z,41.95
2022-11-18T05:40:15.511Z,42.47
2022-11-18T05:43:01.613Z,46.28
2022-11-18T05:48:03.214Z,44.45
2022-11-18T05:50:32.912Z,46.40
2022-11-18T05:53:01.285Z,46.33
2022-11-18T05:58:33.866Z,43.50
2022-11-18T06:01:19.963Z,47.63
2022-11-18T06:03:51.682Z,48.42
2022-11-18T06:06:23.041Z,50.10
2022-11-18T06:09:04.467Z,48.67
2022-11-18T06:11:53.867Z,55.78
2022-11-18T06:14:28.593Z,52.78
2022-11-18T06:17:03.088Z,50.83
2022-11-18T06:19:32.413Z,56.70
2022-11-18T06:22:08.289Z,52.08
2022-11-18T06:24:37.342Z,53.90
2022-11-18T06:27:05.190Z,50.30
2022-11-18T06:29:32.915Z,50.85
2022-11-18T06:32:00.581Z,51.63
2022-11-18T06:34:28.213Z,53.53
2022-11-18T06:37:03.483Z,51.28
2022-11-18T06:39:37.524Z,50.17
2022-11-18T06:42:05.471Z,54.58
2022-11-18T06:44:33.343Z,53.50
2022-11-18T06:47:02.672Z,51.22
2022-11-18T06:49:30.539Z,54.85
2022-11-18T06:51:58.072Z,54.85
2022-11-18T06:54:25.688Z,54.15
2022-11-18T06:56:53.377Z,53.22
2022-11-18T06:59:24.076Z,51.97
2022-11-18T07:01:53.480Z,52.58
2022-11-18T07:04:21.536Z,50.78
2022-11-18T07:06:49.305Z,57.60
2022-11-18T07:09:19.884Z,60.78
2022-11-18T07:11:50.113Z,57.53
2022-11-18T07:14:17.884Z,56.78
2022-11-18T07:16:45.534Z,53.85
2022-11-18T07:19:14.203Z,57.83
2022-11-18T07:21:43.492Z,53.40
2022-11-18T07:24:14.690Z,56.10
2022-11-18T07:26:44.979Z,60.05
2022-11-18T07:29:12.740Z,60.08
2022-11-18T07:31:41.027Z,55.20
2022-11-18T07:34:08.821Z,57.75
2022-11-18T07:36:36.437Z,58.85
2022-11-18T07:39:13.355Z,54.15
2022-11-18T07:41:47.363Z,58.90
2022-11-18T07:44:17.534Z,54.47
2022-11-18T07:46:45.868Z,55.65
2022-11-18T07:49:13.630Z,55.50
2022-11-18T07:51:41.310Z,53.08
2022-11-18T07:54:11.399Z,52.67
2022-11-18T07:56:39.138Z,54.17
2022-11-18T07:59:07.120Z,52.00
2022-11-18T08:01:35.653Z,54.08
2022-11-18T08:04:11.691Z,49.80
2022-11-18T08:06:40.553Z,52.53
2022-11-18T08:09:09.096Z,53.42
2022-11-18T08:11:37.060Z,49.30
2022-11-18T08:14:07.841Z,49.15
2022-11-18T08:16:35.528Z,49.15
2022-11-18T08:19:03.236Z,45.63
2022-11-18T08:21:30.924Z,47.47
2022-11-18T08:23:59.184Z,50.30
2022-11-18T08:26:27.656Z,47.22
2022-11-18T08:28:58.379Z,43.83
2022-11-18T08:31:28.783Z,43.75
2022-11-18T08:34:07.719Z,43.55
2022-11-18T08:36:38.379Z,44.15
2022-11-18T08:39:08.428Z,44.08
2022-11-18T08:41:54.279Z,43.75
2022-11-18T08:44:29.258Z,44.05
2022-11-18T08:46:56.881Z,44.42
2022-11-18T08:49:29.615Z,44.72
2022-11-18T08:54:27.551Z,42.83
2022-11-18T08:56:55.907Z,37.08
2022-11-18T08:59:23.791Z,38.85
2022-11-18T09:01:51.680Z,37.90
2022-11-18T09:12:27.256Z,36.15
2022-11-18T09:15:15.354Z,35.42
2022-11-18T09:17:43.491Z,36.65
2022-11-18T09:20:14.722Z,33.92
2022-11-18T09:22:42.293Z,35.97
2022-11-18T09:25:10.202Z,38.40
2022-11-18T09:27:37.645Z,35.72
2022-11-18T09:30:05.987Z,35.67
2022-11-18T09:32:34.199Z,40.90
2022-11-18T09:35:01.727Z,36.90
2022-11-18T09:37:29.416Z,35.33
2022-11-18T09:39:57.059Z,35.55
2022-11-18T09:42:43.196Z,37.92
2022-11-18T09:45:23.618Z,35.47
2022-11-18T09:47:52.010Z,36.65
2022-11-18T09:53:23.234Z,35.42
2022-11-18T09:55:52.371Z,37.85
2022-11-18T09:58:38.930Z,37.97
2022-11-18T10:01:13.383Z,37.80
2022-11-18T10:03:41.456Z,36.17
2022-11-18T10:06:09.744Z,38.70
2022-11-18T10:08:49.799Z,36.92
2022-11-18T10:11:19.632Z,36.42
2022-11-18T10:13:48.164Z,36.10
2022-11-18T10:16:33.552Z,37.45
2022-11-18T10:19:15.922Z,41.95
2022-11-18T10:22:15.813Z,37.92
2022-11-18T10:24:51.549Z,38.45
2022-11-18T10:27:23.345Z,37.30
2022-11-18T10:29:57.405Z,35.90
2022-11-18T10:32:25.354Z,38.17
2022-11-18T10:34:55.663Z,38.60
2022-11-18T10:38:05.785Z,39.80
2022-11-18T10:40:27.057Z,38.75
2022-11-18T10:42:54.753Z,38.22
2022-11-18T10:45:32.591Z,39.17
2022-11-18T10:48:09.358Z,39.40
2022-11-18T10:50:41.221Z,36.08
2022-11-18T10:53:34.533Z,36.70
2022-11-18T10:56:01.945Z,35.88
2022-11-18T10:58:37.137Z,36.67
2022-11-18T11:01:29.129Z,33.53
2022-11-18T11:04:12.343Z,31.98
2022-11-18T11:06:39.956Z,35.25
2022-11-18T11:09:25.767Z,35.38
2022-11-18T11:14:26.559Z,29.73
2022-11-18T11:16:58.952Z,30.50
2022-11-18T11:19:50.735Z,33.70
2022-11-18T11:22:18.793Z,30.52
2022-11-18T11:24:46.338Z,32.38
2022-11-18T11:30:24.016Z,26.70
2022-11-18T11:35:30.394Z,32.78
2022-11-18T11:38:04.347Z,34.15
2022-11-18T11:40:35.031Z,34.38
2022-11-18T11:43:40.010Z,42.50
2022-11-18T11:46:16.188Z,37.28
2022-11-18T11:48:58.939Z,34.10
2022-11-18T11:51:40.557Z,35.80
2022-11-18T11:54:40.384Z,34.28
2022-11-18T11:57:33.808Z,30.88
2022-11-18T12:00:10.580Z,31.17
2022-11-18T12:02:49.477Z,31.67
2022-11-18T12:05:20.681Z,30.23
2022-11-18T12:08:23.296Z,31.63
2022-11-18T12:11:12.056Z,28.17
2022-11-18T12:13:53.822Z,31.10
2022-11-18T12:16:33.817Z,27.80
2022-11-18T12:19:27.343Z,27.00
2022-11-18T12:22:00.611Z,26.00
2022-11-18T12:24:37.155Z,26.77
2022-11-18T12:27:34.385Z,23.45
2022-11-18T12:30:04.092Z,26.05
2022-11-18T12:32:43.019Z,23.70
2022-11-18T12:35:13.441Z,25.63
2022-11-18T12:37:53.193Z,26.58
2022-11-18T12:40:32.681Z,25.20
2022-11-18T12:43:36.294Z,28.05
2022-11-18T12:46:03.872Z,24.00
2022-11-18T12:48:32.945Z,23.15
2022-11-18T12:51:31.075Z,27.00
2022-11-18T12:53:58.501Z,24.00
2022-11-18T12:56:34.894Z,24.55
2022-11-18T12:59:02.854Z,25.80
2022-11-18T13:01:35.355Z,24.27
2022-11-18T13:04:17.490Z,23.10
2022-11-18T13:06:45.081Z,22.30
2022-11-18T13:09:18.929Z,23.60
2022-11-18T13:11:52.156Z,26.67
2022-11-18T13:14:50.644Z,24.20
2022-11-18T13:17:48.502Z,23.73
2022-11-18T13:20:36.217Z,23.17
2022-11-18T13:23:32.982Z,24.30
2022-11-18T13:26:17.871Z,25.83
2022-11-18T13:29:09.258Z,24.13
2022-11-18T13:32:02.739Z,27.73
2022-11-18T13:34:32.011Z,25.73
2022-11-18T13:37:00.732Z,25.00
2022-11-18T13:39:32.833Z,23.35
2022-11-18T13:42:14.731Z,26.92
2022-11-18T13:45:01.219Z,26.15
2022-11-18T13:47:51.104Z,28.92
2022-11-18T13:50:28.813Z,25.60
2022-11-18T13:53:07.018Z,24.52
2022-11-18T13:55:40.713Z,31.25
2022-11-18T13:58:20.125Z,29.17
2022-11-18T14:01:00.708Z,32.13
2022-11-18T14:03:46.185Z,29.75
2022-11-18T14:06:27.465Z,33.35
2022-11-18T14:09:30.188Z,30.40
2022-11-18T14:12:02.703Z,33.38
2022-11-18T14:14:35.880Z,31.50
2022-11-18T14:17:20.768Z,32.53
2022-11-18T14:19:51.509Z,35.50
2022-11-18T14:22:24.633Z,33.67
2022-11-18T14:25:05.242Z,31.88
2022-11-18T14:27:40.063Z,31.40
2022-11-18T14:30:31.246Z,33.97
2022-11-18T14:33:27.503Z,34.80
2022-11-18T14:36:11.437Z,32.03
2022-11-18T14:41:49.638Z,32.47
2022-11-18T14:44:19.284Z,31.83
2022-11-18T14:46:52.325Z,32.53
2022-11-18T14:49:23.158Z,30.30
2022-11-18T14:51:52.786Z,31.38
2022-11-18T14:54:26.843Z,34.42
2022-11-18T14:56:58.567Z,34.23
2022-11-18T14:59:26.770Z,31.50
2022-11-18T15:01:56.731Z,35.20
2022-11-18T15:04:25.361Z,35.28
2022-11-18T15:06:53.272Z,34.70
2022-11-18T15:09:21.427Z,32.67
2022-11-18T15:11:48.973Z,32.05
2022-11-18T15:14:16.804Z,31.92
2022-11-18T15:16:44.777Z,30.45
2022-11-18T15:19:15.661Z,33.28
2022-11-18T15:21:45.472Z,32.97
2022-11-18T15:24:13.515Z,34.15
2022-11-18T15:26:43.764Z,35.05
2022-11-18T15:29:19.697Z,33.80
2022-11-18T15:31:48.279Z,34.80
2022-11-18T15:34:18.360Z,36.40
2022-11-18T15:36:46.747Z,35.80
2022-11-18T15:39:21.557Z,33.25
2022-11-18T15:41:51.716Z,34.40
2022-11-18T15:44:20.740Z,32.20
2022-11-18T15:46:49.645Z,32.67
2022-11-18T15:49:18.165Z,37.25
2022-11-18T15:51:45.682Z,34.95
2022-11-18T15:54:13.133Z,36.40
2022-11-18T15:56:41.790Z,41.00
2022-11-18T15:59:11.848Z,34.92
2022-11-18T16:01:46.598Z,35.67
2022-11-18T16:04:17.002Z,34.80
2022-11-18T16:06:45.285Z,35.88
2022-11-18T16:09:14.085Z,37.08
2022-11-18T16:12:00.664Z,36.05
2022-11-18T16:14:28.437Z,38.10
2022-11-18T16:16:56.776Z,37.92
2022-11-18T16:19:26.113Z,39.25
2022-11-18T16:21:57.212Z,38.28
2022-11-18T16:24:27.840Z,39.60
2022-11-18T16:26:56.352Z,39.70
2022-11-18T16:29:25.238Z,43.92
2022-11-18T16:31:54.538Z,38.10
2022-11-18T16:34:28.444Z,42.03
2022-11-18T16:36:58.162Z,40.38
2022-11-18T16:39:28.290Z,40.75
2022-11-18T16:42:03.869Z,44.63
2022-11-18T16:44:35.578Z,39.90
2022-11-18T16:47:08.961Z,41.13
2022-11-18T16:49:38.262Z,45.38
2022-11-18T16:52:07.400Z,51.22
2022-11-18T16:54:37.247Z,48.53
2022-11-18T16:57:08.974Z,43.40
2022-11-18T16:59:36.949Z,45.67
2022-11-18T17:02:05.274Z,41.83
2022-11-18T17:04:35.503Z,48.97
2022-11-18T17:07:03.481Z,43.67
2022-11-18T17:09:31.227Z,47.40
2022-11-18T17:11:59.039Z,71.90
2022-11-18T17:14:26.760Z,65.63
2022-11-18T17:16:54.385Z,60.47
2022-11-18T17:19:24.027Z,47.95
2022-11-18T17:21:52.464Z,47.97
2022-11-18T17:24:22.439Z,46.17
2022-11-18T17:26:52.341Z,38.92
2022-11-18T17:29:20.982Z,39.92
2022-11-18T17:31:49.606Z,45.42
2022-11-18T17:34:17.550Z,44.22
2022-11-18T17:36:45.449Z,45.20
2022-11-18T17:39:13.523Z,43.63
2022-11-18T17:41:59.986Z,49.67
2022-11-18T17:44:28.220Z,42.85
2022-11-18T17:46:56.126Z,44.28
2022-11-18T17:49:23.755Z,43.17
2022-11-18T17:51:51.717Z,42.17
2022-11-18T17:54:20.760Z,46.25
2022-11-18T17:56:50.077Z,43.20
2022-11-18T17:59:18.282Z,41.60
2022-11-18T18:01:46.214Z,42.53
2022-11-18T18:04:15.415Z,44.28
2022-11-18T18:06:42.989Z,42.35
2022-11-18T18:09:10.689Z,46.10
2022-11-18T18:11:39.980Z,39.00
2022-11-18T18:14:13.091Z,43.05
2022-11-18T18:16:44.473Z,41.35
2022-11-18T18:19:15.025Z,44.13
2022-11-18T18:21:42.543Z,49.30
2022-11-18T18:24:11.363Z,47.13
2022-11-18T18:26:39.015Z,51.45
2022-11-18T18:29:06.567Z,49.80
2022-11-18T18:31:36.486Z,47.75
2022-11-18T18:34:04.751Z,50.17
2022-11-18T18:36:32.855Z,46.15
2022-11-18T18:39:01.761Z,49.08
2022-11-18T18:41:29.334Z,49.35
2022-11-18T18:43:57.105Z,47.75
2022-11-18T18:46:30.132Z,46.38
2022-11-18T18:49:20.473Z,47.45
2022-11-18T18:51:49.638Z,47.35
2022-11-18T18:54:19.137Z,48.08
2022-11-18T18:56:46.844Z,47.72
2022-11-18T18:59:14.457Z,49.05
2022-11-18T19:01:42.385Z,51.25
2022-11-18T21:14:44.816Z,20.17
2022-11-18T22:18:38.410Z,26.60
2022-11-18T22:55:56.090Z,26.40
2022-11-18T22:58:35.686Z,22.48
2022-11-18T23:02:08.882Z,23.17
2022-11-18T23:06:29.189Z,22.13
2022-11-18T23:08:26.581Z,24.92
2022-11-18T23:12:26.313Z,23.27
